Utica, NE (68456)

5:18 AM CST on November 26, 2014 (GMT -0600)
Centennial Public School | Change Station
CLOSE
Current Station
Personal Weather Station
Location: Utica, NE
Elevation: 1590 ft
Nearby Weather Stations

Elev 1590 ft 40.89 °N, 97.35 °W | Updated 2 minutes ago

Mostly Cloudy
Mostly Cloudy
35.6 °F
Feels Like 32 °F
N
4.0
Wind Variable Wind from West

Today
High -- | Low -- °F
--% Chance of Precip.
Yesterday
High -- | Low -- °F
Precip. -- in
7:29 AM 5:03 PM
Waxing Crescent, 19% visible
Pressure 29.93 in
Visibility 10.0 miles
Clouds Scattered Clouds 6000 ft
Scattered Clouds 7000 ft
Windchill 32 °F
Dew Point 30 °F
Humidity 80%
Rainfall 0.00 in
Snow Depth Not available.
UV 0 out of 12
Pollen .10 out of 12
Air Quality Not available.
Flu Activity Not available.
METAR KJYR 261055Z AUTO 32014KT 10SM SCT060 SCT070 01/M02 A2993 RMK AO2

More Conditions Fewer Conditions

Pressure 29.93 in
Visibility 10.0 miles
Clouds Scattered Clouds 6000 ft
Scattered Clouds 7000 ft
Windchill 32 °F
Dew Point 30 °F
Humidity 80%
Rainfall 0.00 in
Snow Depth Not available.
UV 0 out of 12
Pollen .10 out of 12
Air Quality Not available.
Flu Activity Not available.
METAR KJYR 261055Z AUTO 32014KT 10SM SCT060 SCT070 01/M02 A2993 RMK AO2

More Conditions Fewer Conditions

10-Day Weather Forecast

Almanac

Astronomy

Nov. 26, 2014 Rise Set
Actual Time
Civil Twilight
Nautical Twilight
Astronomical Twilight
Moon
Length of Visible Light
Length of Day
Tomorrow will be .
, % of the Moon is Illuminated

Today's Extremes

State Highs State Lows

Community

WunderPhotos

Upload Photos

1,773,708 photos uploaded!

WunderBlogs® & News

Nearby

Air Quality

  Air Quality AQ Index Pollutant
Not available.

Snow Depth

Station Depth Elevation

Earthquake Activity

City Distance Mag. Time & Date
Minimum magnitude displayed is 2.5.

Coastal Water Temperatures

Place Temperature

Nearby Weather Stations